sensor_id;sensor_type;location;lat;lon;timestamp;P1;durP1;ratioP1;P2;durP2;ratioP2
28086;SDS011;15392;48.912;8.380;2024-02-21T00:01:15;1.27;;;0.85;;
28086;SDS011;15392;48.912;8.380;2024-02-21T00:04:02;0.90;;;0.90;;
28086;SDS011;15392;48.912;8.380;2024-02-21T00:06:48;0.98;;;0.90;;
28086;SDS011;15392;48.912;8.380;2024-02-21T00:09:34;1.35;;;1.02;;
28086;SDS011;15392;48.912;8.380;2024-02-21T00:12:20;0.85;;;0.75;;
28086;SDS011;15392;48.912;8.380;2024-02-21T00:15:06;1.15;;;1.00;;
28086;SDS011;15392;48.912;8.380;2024-02-21T00:17:53;1.23;;;1.02;;
28086;SDS011;15392;48.912;8.380;2024-02-21T00:20:39;0.98;;;0.93;;
28086;SDS011;15392;48.912;8.380;2024-02-21T00:23:25;0.82;;;0.82;;
28086;SDS011;15392;48.912;8.380;2024-02-21T00:26:11;1.40;;;0.90;;
28086;SDS011;15392;48.912;8.380;2024-02-21T00:28:58;1.70;;;0.95;;
28086;SDS011;15392;48.912;8.380;2024-02-21T00:31:44;1.95;;;0.88;;
28086;SDS011;15392;48.912;8.380;2024-02-21T00:34:30;0.82;;;0.82;;
28086;SDS011;15392;48.912;8.380;2024-02-21T00:37:17;0.85;;;0.77;;
28086;SDS011;15392;48.912;8.380;2024-02-21T00:40:03;1.13;;;1.00;;
28086;SDS011;15392;48.912;8.380;2024-02-21T00:42:50;1.17;;;1.10;;
28086;SDS011;15392;48.912;8.380;2024-02-21T00:45:36;1.58;;;0.95;;
28086;SDS011;15392;48.912;8.380;2024-02-21T00:48:22;0.90;;;0.90;;
28086;SDS011;15392;48.912;8.380;2024-02-21T00:51:08;1.27;;;1.17;;
28086;SDS011;15392;48.912;8.380;2024-02-21T00:53:54;2.00;;;1.33;;
28086;SDS011;15392;48.912;8.380;2024-02-21T00:56:40;1.40;;;1.00;;
28086;SDS011;15392;48.912;8.380;2024-02-21T00:59:27;0.82;;;0.70;;
28086;SDS011;15392;48.912;8.380;2024-02-21T01:02:13;0.93;;;0.93;;
28086;SDS011;15392;48.912;8.380;2024-02-21T01:04:59;1.30;;;1.20;;
28086;SDS011;15392;48.912;8.380;2024-02-21T01:07:45;4.60;;;0.90;;
28086;SDS011;15392;48.912;8.380;2024-02-21T01:10:31;0.80;;;0.80;;
28086;SDS011;15392;48.912;8.380;2024-02-21T01:13:20;1.02;;;0.77;;
28086;SDS011;15392;48.912;8.380;2024-02-21T01:16:06;1.17;;;1.00;;
28086;SDS011;15392;48.912;8.380;2024-02-21T01:18:52;1.15;;;1.05;;
28086;SDS011;15392;48.912;8.380;2024-02-21T01:21:38;1.10;;;0.68;;
28086;SDS011;15392;48.912;8.380;2024-02-21T01:24:24;1.20;;;0.70;;
28086;SDS011;15392;48.912;8.380;2024-02-21T01:27:10;1.00;;;0.80;;
28086;SDS011;15392;48.912;8.380;2024-02-21T01:29:57;0.98;;;0.85;;
28086;SDS011;15392;48.912;8.380;2024-02-21T01:32:43;0.70;;;0.70;;
28086;SDS011;15392;48.912;8.380;2024-02-21T01:35:29;0.63;;;0.60;;
28086;SDS011;15392;48.912;8.380;2024-02-21T01:38:15;0.75;;;0.75;;
28086;SDS011;15392;48.912;8.380;2024-02-21T01:41:01;1.00;;;0.75;;
28086;SDS011;15392;48.912;8.380;2024-02-21T01:43:47;1.63;;;1.00;;
28086;SDS011;15392;48.912;8.380;2024-02-21T01:46:33;1.50;;;0.70;;
28086;SDS011;15392;48.912;8.380;2024-02-21T01:49:20;0.88;;;0.85;;
28086;SDS011;15392;48.912;8.380;2024-02-21T01:52:07;1.13;;;1.02;;
28086;SDS011;15392;48.912;8.380;2024-02-21T01:54:54;0.85;;;0.65;;
28086;SDS011;15392;48.912;8.380;2024-02-21T01:57:40;0.80;;;0.80;;
28086;SDS011;15392;48.912;8.380;2024-02-21T02:00:28;1.17;;;0.60;;
28086;SDS011;15392;48.912;8.380;2024-02-21T02:03:14;0.55;;;0.55;;
28086;SDS011;15392;48.912;8.380;2024-02-21T02:06:04;0.85;;;0.70;;
28086;SDS011;15392;48.912;8.380;2024-02-21T02:08:53;1.00;;;0.75;;
28086;SDS011;15392;48.912;8.380;2024-02-21T02:11:39;0.68;;;0.65;;
28086;SDS011;15392;48.912;8.380;2024-02-21T02:14:25;0.70;;;0.50;;
28086;SDS011;15392;48.912;8.380;2024-02-21T02:17:12;1.42;;;0.60;;
28086;SDS011;15392;48.912;8.380;2024-02-21T02:19:58;0.80;;;0.80;;
28086;SDS011;15392;48.912;8.380;2024-02-21T02:22:44;0.95;;;0.80;;
28086;SDS011;15392;48.912;8.380;2024-02-21T02:25:34;1.02;;;0.80;;
28086;SDS011;15392;48.912;8.380;2024-02-21T02:28:21;0.88;;;0.88;;
28086;SDS011;15392;48.912;8.380;2024-02-21T02:31:07;0.63;;;0.63;;
28086;SDS011;15392;48.912;8.380;2024-02-21T02:33:53;0.68;;;0.68;;
28086;SDS011;15392;48.912;8.380;2024-02-21T02:36:39;0.57;;;0.50;;
28086;SDS011;15392;48.912;8.380;2024-02-21T02:39:25;0.73;;;0.70;;
28086;SDS011;15392;48.912;8.380;2024-02-21T02:42:11;0.75;;;0.60;;
28086;SDS011;15392;48.912;8.380;2024-02-21T02:44:57;0.70;;;0.70;;
28086;SDS011;15392;48.912;8.380;2024-02-21T02:47:46;1.08;;;0.73;;
28086;SDS011;15392;48.912;8.380;2024-02-21T02:50:33;1.25;;;0.63;;
28086;SDS011;15392;48.912;8.380;2024-02-21T02:53:19;0.73;;;0.60;;
28086;SDS011;15392;48.912;8.380;2024-02-21T02:56:05;0.82;;;0.82;;
28086;SDS011;15392;48.912;8.380;2024-02-21T02:58:51;0.70;;;0.70;;
28086;SDS011;15392;48.912;8.380;2024-02-21T03:01:37;0.90;;;0.90;;
28086;SDS011;15392;48.912;8.380;2024-02-21T03:04:23;1.38;;;0.80;;
28086;SDS011;15392;48.912;8.380;2024-02-21T03:07:09;1.35;;;0.65;;
28086;SDS011;15392;48.912;8.380;2024-02-21T03:09:56;0.63;;;0.52;;
28086;SDS011;15392;48.912;8.380;2024-02-21T03:12:43;0.50;;;0.50;;
28086;SDS011;15392;48.912;8.380;2024-02-21T03:15:29;0.80;;;0.80;;
28086;SDS011;15392;48.912;8.380;2024-02-21T03:18:15;1.42;;;0.60;;
28086;SDS011;15392;48.912;8.380;2024-02-21T03:21:01;0.57;;;0.57;;
28086;SDS011;15392;48.912;8.380;2024-02-21T03:23:48;0.70;;;0.57;;
28086;SDS011;15392;48.912;8.380;2024-02-21T03:26:34;0.60;;;0.60;;
28086;SDS011;15392;48.912;8.380;2024-02-21T03:29:20;0.57;;;0.57;;
28086;SDS011;15392;48.912;8.380;2024-02-21T03:32:06;0.80;;;0.70;;
28086;SDS011;15392;48.912;8.380;2024-02-21T03:34:52;1.00;;;1.00;;
28086;SDS011;15392;48.912;8.380;2024-02-21T03:37:38;0.70;;;0.70;;
28086;SDS011;15392;48.912;8.380;2024-02-21T03:40:24;1.30;;;0.90;;
28086;SDS011;15392;48.912;8.380;2024-02-21T03:43:10;0.70;;;0.70;;
28086;SDS011;15392;48.912;8.380;2024-02-21T03:45:56;1.23;;;0.93;;
28086;SDS011;15392;48.912;8.380;2024-02-21T03:48:42;0.65;;;0.60;;
28086;SDS011;15392;48.912;8.380;2024-02-21T03:51:28;0.70;;;0.68;;
28086;SDS011;15392;48.912;8.380;2024-02-21T03:54:14;0.73;;;0.65;;
28086;SDS011;15392;48.912;8.380;2024-02-21T03:57:00;0.52;;;0.52;;
28086;SDS011;15392;48.912;8.380;2024-02-21T03:59:46;1.02;;;0.80;;
28086;SDS011;15392;48.912;8.380;2024-02-21T04:02:36;0.70;;;0.70;;
28086;SDS011;15392;48.912;8.380;2024-02-21T04:05:22;1.00;;;0.70;;
28086;SDS011;15392;48.912;8.380;2024-02-21T04:08:08;0.75;;;0.73;;
28086;SDS011;15392;48.912;8.380;2024-02-21T04:10:54;0.85;;;0.77;;
28086;SDS011;15392;48.912;8.380;2024-02-21T04:13:40;0.70;;;0.70;;
28086;SDS011;15392;48.912;8.380;2024-02-21T04:16:26;1.05;;;0.73;;
28086;SDS011;15392;48.912;8.380;2024-02-21T04:19:12;0.52;;;0.52;;
28086;SDS011;15392;48.912;8.380;2024-02-21T04:21:58;0.75;;;0.75;;
28086;SDS011;15392;48.912;8.380;2024-02-21T04:24:44;0.75;;;0.70;;
28086;SDS011;15392;48.912;8.380;2024-02-21T04:27:30;0.75;;;0.75;;
28086;SDS011;15392;48.912;8.380;2024-02-21T04:30:17;0.75;;;0.70;;
28086;SDS011;15392;48.912;8.380;2024-02-21T04:33:03;1.05;;;0.98;;
28086;SDS011;15392;48.912;8.380;2024-02-21T04:35:49;1.10;;;1.00;;
28086;SDS011;15392;48.912;8.380;2024-02-21T04:38:35;1.30;;;0.85;;
28086;SDS011;15392;48.912;8.380;2024-02-21T04:41:21;0.80;;;0.80;;
28086;SDS011;15392;48.912;8.380;2024-02-21T04:44:07;0.93;;;0.93;;
28086;SDS011;15392;48.912;8.380;2024-02-21T04:46:54;0.90;;;0.90;;
28086;SDS011;15392;48.912;8.380;2024-02-21T04:49:40;0.65;;;0.65;;
28086;SDS011;15392;48.912;8.380;2024-02-21T04:52:26;1.98;;;1.00;;
28086;SDS011;15392;48.912;8.380;2024-02-21T04:55:12;1.10;;;0.82;;
28086;SDS011;15392;48.912;8.380;2024-02-21T04:57:58;0.80;;;0.80;;
28086;SDS011;15392;48.912;8.380;2024-02-21T05:00:45;1.20;;;1.02;;
28086;SDS011;15392;48.912;8.380;2024-02-21T05:03:31;1.10;;;0.80;;
28086;SDS011;15392;48.912;8.380;2024-02-21T05:06:18;1.27;;;1.20;;
28086;SDS011;15392;48.912;8.380;2024-02-21T05:09:04;2.20;;;1.58;;
28086;SDS011;15392;48.912;8.380;2024-02-21T05:11:54;2.25;;;1.70;;
28086;SDS011;15392;48.912;8.380;2024-02-21T05:14:40;1.73;;;1.63;;
28086;SDS011;15392;48.912;8.380;2024-02-21T05:17:26;1.88;;;1.75;;
28086;SDS011;15392;48.912;8.380;2024-02-21T05:20:12;1.90;;;1.80;;
28086;SDS011;15392;48.912;8.380;2024-02-21T05:22:58;1.48;;;1.17;;
28086;SDS011;15392;48.912;8.380;2024-02-21T05:25:44;1.13;;;1.02;;
28086;SDS011;15392;48.912;8.380;2024-02-21T05:28:30;0.80;;;0.80;;
28086;SDS011;15392;48.912;8.380;2024-02-21T05:31:20;1.75;;;1.15;;
28086;SDS011;15392;48.912;8.380;2024-02-21T05:34:09;1.10;;;1.00;;
28086;SDS011;15392;48.912;8.380;2024-02-21T05:36:56;0.70;;;0.70;;
28086;SDS011;15392;48.912;8.380;2024-02-21T05:39:45;0.70;;;0.70;;
28086;SDS011;15392;48.912;8.380;2024-02-21T05:42:31;0.73;;;0.73;;
28086;SDS011;15392;48.912;8.380;2024-02-21T05:45:17;0.70;;;0.70;;
28086;SDS011;15392;48.912;8.380;2024-02-21T05:48:04;0.70;;;0.70;;
28086;SDS011;15392;48.912;8.380;2024-02-21T05:50:50;0.90;;;0.82;;
28086;SDS011;15392;48.912;8.380;2024-02-21T05:53:36;0.60;;;0.60;;
28086;SDS011;15392;48.912;8.380;2024-02-21T05:56:25;0.55;;;0.55;;
28086;SDS011;15392;48.912;8.380;2024-02-21T05:59:11;1.10;;;0.77;;
28086;SDS011;15392;48.912;8.380;2024-02-21T06:01:58;0.70;;;0.52;;
28086;SDS011;15392;48.912;8.380;2024-02-21T06:04:44;1.20;;;0.95;;
28086;SDS011;15392;48.912;8.380;2024-02-21T06:07:31;0.68;;;0.68;;
28086;SDS011;15392;48.912;8.380;2024-02-21T06:10:17;0.75;;;0.75;;
28086;SDS011;15392;48.912;8.380;2024-02-21T06:13:03;0.85;;;0.80;;
28086;SDS011;15392;48.912;8.380;2024-02-21T06:15:50;0.90;;;0.90;;
28086;SDS011;15392;48.912;8.380;2024-02-21T06:18:36;1.27;;;1.00;;
28086;SDS011;15392;48.912;8.380;2024-02-21T06:21:23;1.33;;;0.93;;
28086;SDS011;15392;48.912;8.380;2024-02-21T06:24:09;0.85;;;0.70;;
28086;SDS011;15392;48.912;8.380;2024-02-21T06:26:55;0.75;;;0.75;;
28086;SDS011;15392;48.912;8.380;2024-02-21T06:29:41;1.00;;;0.90;;
28086;SDS011;15392;48.912;8.380;2024-02-21T06:32:27;0.85;;;0.80;;
28086;SDS011;15392;48.912;8.380;2024-02-21T06:35:13;0.80;;;0.80;;
28086;SDS011;15392;48.912;8.380;2024-02-21T06:37:59;0.70;;;0.70;;
28086;SDS011;15392;48.912;8.380;2024-02-21T06:40:45;1.15;;;0.80;;
28086;SDS011;15392;48.912;8.380;2024-02-21T06:43:35;0.77;;;0.77;;
28086;SDS011;15392;48.912;8.380;2024-02-21T06:46:27;0.82;;;0.80;;
28086;SDS011;15392;48.912;8.380;2024-02-21T06:49:14;0.80;;;0.68;;
28086;SDS011;15392;48.912;8.380;2024-02-21T06:52:01;0.73;;;0.73;;
28086;SDS011;15392;48.912;8.380;2024-02-21T06:54:48;1.00;;;0.90;;
28086;SDS011;15392;48.912;8.380;2024-02-21T06:57:34;0.85;;;0.80;;
28086;SDS011;15392;48.912;8.380;2024-02-21T07:00:20;0.60;;;0.60;;
28086;SDS011;15392;48.912;8.380;2024-02-21T07:03:06;0.55;;;0.50;;
28086;SDS011;15392;48.912;8.380;2024-02-21T07:05:52;1.33;;;1.02;;
28086;SDS011;15392;48.912;8.380;2024-02-21T07:08:39;1.05;;;0.85;;
28086;SDS011;15392;48.912;8.380;2024-02-21T07:11:25;0.73;;;0.73;;
28086;SDS011;15392;48.912;8.380;2024-02-21T07:14:11;1.30;;;1.20;;
28086;SDS011;15392;48.912;8.380;2024-02-21T07:16:57;1.23;;;1.20;;
28086;SDS011;15392;48.912;8.380;2024-02-21T07:19:43;0.80;;;0.80;;
28086;SDS011;15392;48.912;8.380;2024-02-21T07:22:29;0.80;;;0.80;;
28086;SDS011;15392;48.912;8.380;2024-02-21T07:25:15;1.20;;;0.80;;
28086;SDS011;15392;48.912;8.380;2024-02-21T07:28:01;0.82;;;0.82;;
28086;SDS011;15392;48.912;8.380;2024-02-21T07:30:48;1.20;;;1.10;;
28086;SDS011;15392;48.912;8.380;2024-02-21T07:33:34;0.93;;;0.82;;
28086;SDS011;15392;48.912;8.380;2024-02-21T07:36:28;0.98;;;0.98;;
28086;SDS011;15392;48.912;8.380;2024-02-21T07:39:18;0.77;;;0.77;;
28086;SDS011;15392;48.912;8.380;2024-02-21T07:42:04;0.73;;;0.73;;
28086;SDS011;15392;48.912;8.380;2024-02-21T07:44:50;2.55;;;1.30;;
28086;SDS011;15392;48.912;8.380;2024-02-21T07:47:36;1.40;;;1.30;;
28086;SDS011;15392;48.912;8.380;2024-02-21T07:50:22;3.10;;;1.00;;
28086;SDS011;15392;48.912;8.380;2024-02-21T07:53:08;1.67;;;1.10;;
28086;SDS011;15392;48.912;8.380;2024-02-21T07:55:54;10.35;;;9.45;;
28086;SDS011;15392;48.912;8.380;2024-02-21T07:58:40;5.72;;;5.32;;
28086;SDS011;15392;48.912;8.380;2024-02-21T08:01:27;3.63;;;3.42;;
28086;SDS011;15392;48.912;8.380;2024-02-21T08:04:13;2.78;;;2.58;;
28086;SDS011;15392;48.912;8.380;2024-02-21T08:06:59;1.60;;;1.50;;
28086;SDS011;15392;48.912;8.380;2024-02-21T08:09:49;1.35;;;1.25;;
28086;SDS011;15392;48.912;8.380;2024-02-21T08:12:35;1.58;;;1.35;;
28086;SDS011;15392;48.912;8.380;2024-02-21T08:15:21;1.20;;;1.10;;
28086;SDS011;15392;48.912;8.380;2024-02-21T08:18:10;0.70;;;0.70;;
28086;SDS011;15392;48.912;8.380;2024-02-21T08:20:56;1.90;;;1.02;;
28086;SDS011;15392;48.912;8.380;2024-02-21T08:23:46;1.15;;;1.02;;
28086;SDS011;15392;48.912;8.380;2024-02-21T08:29:26;1.25;;;0.85;;
28086;SDS011;15392;48.912;8.380;2024-02-21T08:32:12;0.88;;;0.88;;
28086;SDS011;15392;48.912;8.380;2024-02-21T08:34:58;1.08;;;0.88;;
28086;SDS011;15392;48.912;8.380;2024-02-21T08:37:44;1.30;;;1.20;;
28086;SDS011;15392;48.912;8.380;2024-02-21T08:40:33;0.63;;;0.63;;
28086;SDS011;15392;48.912;8.380;2024-02-21T08:43:20;0.88;;;0.85;;
28086;SDS011;15392;48.912;8.380;2024-02-21T08:46:06;0.82;;;0.82;;
28086;SDS011;15392;48.912;8.380;2024-02-21T08:48:52;0.98;;;0.98;;
28086;SDS011;15392;48.912;8.380;2024-02-21T08:51:39;1.40;;;1.30;;
28086;SDS011;15392;48.912;8.380;2024-02-21T08:54:25;1.10;;;1.10;;
28086;SDS011;15392;48.912;8.380;2024-02-21T08:57:11;2.13;;;1.13;;
28086;SDS011;15392;48.912;8.380;2024-02-21T08:59:59;1.27;;;1.20;;
28086;SDS011;15392;48.912;8.380;2024-02-21T09:02:45;1.40;;;1.30;;
28086;SDS011;15392;48.912;8.380;2024-02-21T09:05:31;1.30;;;1.20;;
28086;SDS011;15392;48.912;8.380;2024-02-21T09:11:59;1.33;;;1.20;;
28086;SDS011;15392;48.912;8.380;2024-02-21T09:14:51;1.17;;;1.10;;
28086;SDS011;15392;48.912;8.380;2024-02-21T09:17:37;1.30;;;1.20;;
28086;SDS011;15392;48.912;8.380;2024-02-21T09:20:24;1.17;;;1.08;;
28086;SDS011;15392;48.912;8.380;2024-02-21T09:23:11;1.20;;;1.10;;
28086;SDS011;15392;48.912;8.380;2024-02-21T09:25:57;0.90;;;0.90;;
28086;SDS011;15392;48.912;8.380;2024-02-21T09:28:45;1.20;;;0.95;;
28086;SDS011;15392;48.912;8.380;2024-02-21T09:31:32;0.80;;;0.80;;
28086;SDS011;15392;48.912;8.380;2024-02-21T09:34:18;0.90;;;0.90;;
28086;SDS011;15392;48.912;8.380;2024-02-21T09:37:04;1.42;;;1.08;;
28086;SDS011;15392;48.912;8.380;2024-02-21T09:39:50;0.63;;;0.63;;
28086;SDS011;15392;48.912;8.380;2024-02-21T09:42:38;0.77;;;0.77;;
28086;SDS011;15392;48.912;8.380;2024-02-21T09:45:26;0.75;;;0.70;;
28086;SDS011;15392;48.912;8.380;2024-02-21T09:48:19;0.80;;;0.77;;
28086;SDS011;15392;48.912;8.380;2024-02-21T09:51:13;1.17;;;0.90;;
28086;SDS011;15392;48.912;8.380;2024-02-21T09:54:00;0.98;;;0.98;;
28086;SDS011;15392;48.912;8.380;2024-02-21T09:56:48;1.33;;;0.73;;
28086;SDS011;15392;48.912;8.380;2024-02-21T09:59:34;0.90;;;0.90;;
28086;SDS011;15392;48.912;8.380;2024-02-21T10:02:20;0.90;;;0.90;;
28086;SDS011;15392;48.912;8.380;2024-02-21T10:05:07;0.70;;;0.70;;
28086;SDS011;15392;48.912;8.380;2024-02-21T10:07:54;1.10;;;1.00;;
28086;SDS011;15392;48.912;8.380;2024-02-21T10:10:42;1.20;;;1.00;;
28086;SDS011;15392;48.912;8.380;2024-02-21T10:13:29;0.75;;;0.75;;
28086;SDS011;15392;48.912;8.380;2024-02-21T10:16:16;0.77;;;0.77;;
28086;SDS011;15392;48.912;8.380;2024-02-21T10:19:02;0.80;;;0.80;;
28086;SDS011;15392;48.912;8.380;2024-02-21T10:22:01;0.77;;;0.77;;
28086;SDS011;15392;48.912;8.380;2024-02-21T10:24:53;0.70;;;0.60;;
28086;SDS011;15392;48.912;8.380;2024-02-21T10:27:40;0.80;;;0.68;;
28086;SDS011;15392;48.912;8.380;2024-02-21T10:30:26;0.80;;;0.68;;
28086;SDS011;15392;48.912;8.380;2024-02-21T10:33:12;0.73;;;0.73;;
28086;SDS011;15392;48.912;8.380;2024-02-21T10:36:08;1.20;;;0.65;;
28086;SDS011;15392;48.912;8.380;2024-02-21T10:38:55;0.70;;;0.70;;
28086;SDS011;15392;48.912;8.380;2024-02-21T10:41:41;0.77;;;0.63;;
28086;SDS011;15392;48.912;8.380;2024-02-21T10:44:29;0.75;;;0.55;;
28086;SDS011;15392;48.912;8.380;2024-02-21T10:47:24;1.08;;;0.98;;
28086;SDS011;15392;48.912;8.380;2024-02-21T10:50:13;0.90;;;0.90;;
28086;SDS011;15392;48.912;8.380;2024-02-21T10:53:47;0.67;;;0.60;;
28086;SDS011;15392;48.912;8.380;2024-02-21T10:56:49;0.70;;;0.70;;
28086;SDS011;15392;48.912;8.380;2024-02-21T10:59:37;1.75;;;0.80;;
28086;SDS011;15392;48.912;8.380;2024-02-21T11:02:25;1.08;;;0.93;;
28086;SDS011;15392;48.912;8.380;2024-02-21T11:05:15;1.05;;;0.98;;
28086;SDS011;15392;48.912;8.380;2024-02-21T11:08:02;0.93;;;0.90;;
28086;SDS011;15392;48.912;8.380;2024-02-21T11:10:56;0.90;;;0.90;;
28086;SDS011;15392;48.912;8.380;2024-02-21T11:13:43;0.90;;;0.68;;
28086;SDS011;15392;48.912;8.380;2024-02-21T11:16:34;1.48;;;0.98;;
28086;SDS011;15392;48.912;8.380;2024-02-21T11:19:26;1.50;;;1.45;;
28086;SDS011;15392;48.912;8.380;2024-02-21T11:22:17;1.00;;;0.90;;
28086;SDS011;15392;48.912;8.380;2024-02-21T11:25:08;4.55;;;4.25;;
28086;SDS011;15392;48.912;8.380;2024-02-21T11:28:00;5.03;;;4.63;;
28086;SDS011;15392;48.912;8.380;2024-02-21T11:30:48;6.45;;;6.00;;
28086;SDS011;15392;48.912;8.380;2024-02-21T11:33:39;3.60;;;3.40;;
28086;SDS011;15392;48.912;8.380;2024-02-21T11:36:29;3.20;;;2.90;;
28086;SDS011;15392;48.912;8.380;2024-02-21T11:39:18;2.08;;;1.98;;
28086;SDS011;15392;48.912;8.380;2024-02-21T11:42:07;2.45;;;2.28;;
28086;SDS011;15392;48.912;8.380;2024-02-21T11:44:54;1.85;;;1.75;;
28086;SDS011;15392;48.912;8.380;2024-02-21T11:47:45;1.95;;;1.85;;
28086;SDS011;15392;48.912;8.380;2024-02-21T11:50:32;1.67;;;1.58;;
28086;SDS011;15392;48.912;8.380;2024-02-21T11:53:20;1.75;;;1.63;;
28086;SDS011;15392;48.912;8.380;2024-02-21T11:56:06;2.78;;;2.58;;
28086;SDS011;15392;48.912;8.380;2024-02-21T11:58:52;2.10;;;1.80;;
28086;SDS011;15392;48.912;8.380;2024-02-21T12:01:38;1.63;;;1.52;;
28086;SDS011;15392;48.912;8.380;2024-02-21T12:04:24;2.10;;;2.00;;
28086;SDS011;15392;48.912;8.380;2024-02-21T12:07:10;1.95;;;1.85;;
28086;SDS011;15392;48.912;8.380;2024-02-21T12:09:58;1.90;;;1.80;;
28086;SDS011;15392;48.912;8.380;2024-02-21T12:12:45;2.90;;;2.60;;
28086;SDS011;15392;48.912;8.380;2024-02-21T12:15:31;1.58;;;1.48;;
28086;SDS011;15392;48.912;8.380;2024-02-21T12:18:17;1.27;;;1.17;;
28086;SDS011;15392;48.912;8.380;2024-02-21T12:21:04;1.80;;;1.70;;
28086;SDS011;15392;48.912;8.380;2024-02-21T12:23:50;1.50;;;1.40;;
28086;SDS011;15392;48.912;8.380;2024-02-21T12:26:36;2.72;;;2.53;;
28086;SDS011;15392;48.912;8.380;2024-02-21T12:29:23;1.80;;;1.70;;
28086;SDS011;15392;48.912;8.380;2024-02-21T12:32:14;3.63;;;3.42;;
28086;SDS011;15392;48.912;8.380;2024-02-21T12:35:00;2.17;;;2.08;;
28086;SDS011;15392;48.912;8.380;2024-02-21T12:37:46;1.58;;;1.48;;
28086;SDS011;15392;48.912;8.380;2024-02-21T12:40:32;1.45;;;1.35;;
28086;SDS011;15392;48.912;8.380;2024-02-21T12:43:18;1.90;;;1.80;;
28086;SDS011;15392;48.912;8.380;2024-02-21T12:46:05;1.50;;;1.40;;
28086;SDS011;15392;48.912;8.380;2024-02-21T12:48:52;1.40;;;1.30;;
28086;SDS011;15392;48.912;8.380;2024-02-21T12:51:39;1.30;;;1.20;;
28086;SDS011;15392;48.912;8.380;2024-02-21T12:54:27;1.50;;;1.35;;
28086;SDS011;15392;48.912;8.380;2024-02-21T12:57:15;0.90;;;0.90;;
28086;SDS011;15392;48.912;8.380;2024-02-21T13:00:01;0.95;;;0.70;;
28086;SDS011;15392;48.912;8.380;2024-02-21T13:02:48;1.50;;;1.40;;
28086;SDS011;15392;48.912;8.380;2024-02-21T13:05:35;1.88;;;1.42;;
28086;SDS011;15392;48.912;8.380;2024-02-21T13:08:22;0.80;;;0.80;;
28086;SDS011;15392;48.912;8.380;2024-02-21T13:11:08;1.40;;;1.30;;
28086;SDS011;15392;48.912;8.380;2024-02-21T13:13:54;0.80;;;0.80;;
28086;SDS011;15392;48.912;8.380;2024-02-21T13:16:40;1.20;;;1.10;;
28086;SDS011;15392;48.912;8.380;2024-02-21T13:19:26;0.98;;;0.93;;
28086;SDS011;15392;48.912;8.380;2024-02-21T13:22:12;1.95;;;1.85;;
28086;SDS011;15392;48.912;8.380;2024-02-21T13:24:58;1.42;;;1.33;;
28086;SDS011;15392;48.912;8.380;2024-02-21T13:27:44;0.85;;;0.85;;
28086;SDS011;15392;48.912;8.380;2024-02-21T13:30:30;0.60;;;0.60;;
28086;SDS011;15392;48.912;8.380;2024-02-21T13:33:16;0.65;;;0.60;;
28086;SDS011;15392;48.912;8.380;2024-02-21T13:36:03;0.60;;;0.60;;
28086;SDS011;15392;48.912;8.380;2024-02-21T13:38:49;0.60;;;0.60;;
28086;SDS011;15392;48.912;8.380;2024-02-21T13:41:36;0.50;;;0.45;;
28086;SDS011;15392;48.912;8.380;2024-02-21T13:44:22;0.55;;;0.55;;
28086;SDS011;15392;48.912;8.380;2024-02-21T13:47:08;0.60;;;0.60;;
28086;SDS011;15392;48.912;8.380;2024-02-21T13:49:56;0.82;;;0.80;;
28086;SDS011;15392;48.912;8.380;2024-02-21T13:52:42;0.60;;;0.60;;
28086;SDS011;15392;48.912;8.380;2024-02-21T13:55:28;0.70;;;0.70;;
28086;SDS011;15392;48.912;8.380;2024-02-21T13:58:15;0.63;;;0.52;;
28086;SDS011;15392;48.912;8.380;2024-02-21T14:01:02;0.50;;;0.50;;
28086;SDS011;15392;48.912;8.380;2024-02-21T14:03:49;0.52;;;0.52;;
28086;SDS011;15392;48.912;8.380;2024-02-21T14:06:37;0.60;;;0.60;;
28086;SDS011;15392;48.912;8.380;2024-02-21T14:09:34;0.90;;;0.90;;
28086;SDS011;15392;48.912;8.380;2024-02-21T14:12:23;0.52;;;0.50;;
28086;SDS011;15392;48.912;8.380;2024-02-21T14:15:09;1.17;;;0.52;;
28086;SDS011;15392;48.912;8.380;2024-02-21T14:17:55;0.88;;;0.75;;
28086;SDS011;15392;48.912;8.380;2024-02-21T14:20:42;0.70;;;0.70;;
28086;SDS011;15392;48.912;8.380;2024-02-21T14:23:28;0.47;;;0.47;;
28086;SDS011;15392;48.912;8.380;2024-02-21T14:26:14;0.65;;;0.65;;
28086;SDS011;15392;48.912;8.380;2024-02-21T14:29:00;0.68;;;0.68;;
28086;SDS011;15392;48.912;8.380;2024-02-21T14:31:48;1.05;;;0.88;;
28086;SDS011;15392;48.912;8.380;2024-02-21T14:34:34;0.80;;;0.80;;
28086;SDS011;15392;48.912;8.380;2024-02-21T14:37:20;0.60;;;0.60;;
28086;SDS011;15392;48.912;8.380;2024-02-21T14:40:07;1.27;;;0.75;;
28086;SDS011;15392;48.912;8.380;2024-02-21T14:42:53;0.60;;;0.60;;
28086;SDS011;15392;48.912;8.380;2024-02-21T14:45:39;0.80;;;0.80;;
28086;SDS011;15392;48.912;8.380;2024-02-21T14:48:25;1.73;;;1.63;;
28086;SDS011;15392;48.912;8.380;2024-02-21T14:51:13;2.30;;;2.20;;
28086;SDS011;15392;48.912;8.380;2024-02-21T14:54:00;2.33;;;2.22;;
28086;SDS011;15392;48.912;8.380;2024-02-21T14:56:46;4.00;;;3.80;;
28086;SDS011;15392;48.912;8.380;2024-02-21T14:59:32;5.50;;;5.20;;
28086;SDS011;15392;48.912;8.380;2024-02-21T15:02:18;3.60;;;3.40;;
28086;SDS011;15392;48.912;8.380;2024-02-21T15:05:04;2.38;;;2.28;;
28086;SDS011;15392;48.912;8.380;2024-02-21T15:07:51;3.13;;;3.03;;
28086;SDS011;15392;48.912;8.380;2024-02-21T15:10:38;2.65;;;2.45;;
28086;SDS011;15392;48.912;8.380;2024-02-21T15:13:24;2.10;;;2.00;;
28086;SDS011;15392;48.912;8.380;2024-02-21T15:16:10;1.35;;;1.35;;
28086;SDS011;15392;48.912;8.380;2024-02-21T15:18:56;0.88;;;0.88;;
28086;SDS011;15392;48.912;8.380;2024-02-21T15:21:42;0.70;;;0.70;;
28086;SDS011;15392;48.912;8.380;2024-02-21T15:24:28;0.80;;;0.80;;
28086;SDS011;15392;48.912;8.380;2024-02-21T15:27:14;0.68;;;0.68;;
28086;SDS011;15392;48.912;8.380;2024-02-21T15:30:01;1.02;;;0.68;;
28086;SDS011;15392;48.912;8.380;2024-02-21T15:32:48;0.60;;;0.60;;
28086;SDS011;15392;48.912;8.380;2024-02-21T15:35:34;0.80;;;0.80;;
28086;SDS011;15392;48.912;8.380;2024-02-21T15:38:20;0.80;;;0.80;;
28086;SDS011;15392;48.912;8.380;2024-02-21T15:41:06;0.70;;;0.70;;
28086;SDS011;15392;48.912;8.380;2024-02-21T15:43:52;0.68;;;0.68;;
28086;SDS011;15392;48.912;8.380;2024-02-21T15:46:38;0.93;;;0.80;;
28086;SDS011;15392;48.912;8.380;2024-02-21T15:49:24;0.65;;;0.65;;
28086;SDS011;15392;48.912;8.380;2024-02-21T15:52:10;0.80;;;0.80;;
28086;SDS011;15392;48.912;8.380;2024-02-21T15:54:57;0.85;;;0.85;;
28086;SDS011;15392;48.912;8.380;2024-02-21T15:57:44;1.05;;;0.95;;
28086;SDS011;15392;48.912;8.380;2024-02-21T16:00:30;0.90;;;0.90;;
28086;SDS011;15392;48.912;8.380;2024-02-21T16:03:18;1.00;;;1.00;;
28086;SDS011;15392;48.912;8.380;2024-02-21T16:06:04;1.17;;;1.10;;
28086;SDS011;15392;48.912;8.380;2024-02-21T16:08:50;0.70;;;0.70;;
28086;SDS011;15392;48.912;8.380;2024-02-21T16:11:37;0.70;;;0.70;;
28086;SDS011;15392;48.912;8.380;2024-02-21T16:14:23;0.68;;;0.68;;
28086;SDS011;15392;48.912;8.380;2024-02-21T16:17:11;1.02;;;0.93;;
28086;SDS011;15392;48.912;8.380;2024-02-21T16:19:58;0.98;;;0.98;;
28086;SDS011;15392;48.912;8.380;2024-02-21T16:22:46;0.68;;;0.68;;
28086;SDS011;15392;48.912;8.380;2024-02-21T16:25:32;1.10;;;1.00;;
28086;SDS011;15392;48.912;8.380;2024-02-21T16:28:19;1.25;;;1.20;;
28086;SDS011;15392;48.912;8.380;2024-02-21T16:31:05;0.90;;;0.90;;
28086;SDS011;15392;48.912;8.380;2024-02-21T16:33:51;0.90;;;0.70;;
28086;SDS011;15392;48.912;8.380;2024-02-21T16:36:37;0.63;;;0.63;;
28086;SDS011;15392;48.912;8.380;2024-02-21T16:39:26;0.70;;;0.70;;
28086;SDS011;15392;48.912;8.380;2024-02-21T16:42:12;0.65;;;0.55;;
28086;SDS011;15392;48.912;8.380;2024-02-21T16:44:59;0.73;;;0.73;;
28086;SDS011;15392;48.912;8.380;2024-02-21T16:47:46;0.60;;;0.60;;
28086;SDS011;15392;48.912;8.380;2024-02-21T16:50:34;0.90;;;0.90;;
28086;SDS011;15392;48.912;8.380;2024-02-21T16:53:30;0.77;;;0.77;;